Time;durP1;ratioP1;P1;durP2;ratioP2;P2;SDS_P1;SDS_P2;PMS_P1;PMS_P2;Temp;Humidity;BMP_temperature;BMP_pressure;BME280_temperature;BME280_humidity;BME280_pressure;Samples;Min_cycle;Max_cycle;Signal;HPM_P1;HPM_P2
2022/11/24 00:01:34;;;;;;;6.50;5.03;;;7.40;99.90;;;;;;1934476;73;21103;-88
2022/11/24 00:04:26;;;;;;;6.75;5.45;;;7.50;99.90;;;;;;1928884;73;21165;-88
2022/11/24 00:07:17;;;;;;;7.55;6.33;;;7.40;99.90;;;;;;1917289;73;21135;-88
2022/11/24 00:10:10;;;;;;;7.53;5.40;;;7.50;99.90;;;;;;1927719;73;21174;-87
2022/11/24 00:13:02;;;;;;;7.55;5.90;;;7.50;99.90;;;;;;1922105;73;21106;-88
2022/11/24 00:18:32;;;;;;;6.95;5.78;;;7.40;99.90;;;;;;1934172;72;22200;-86
2022/11/24 00:21:25;;;;;;;7.78;6.15;;;7.40;99.90;;;;;;1875670;75;21094;-88
2022/11/24 00:24:16;;;;;;;8.15;6.75;;;7.40;99.90;;;;;;1876758;75;21211;-88
2022/11/24 00:27:07;;;;;;;8.55;6.47;;;7.40;99.90;;;;;;1892197;75;21048;-88
2022/11/24 00:32:39;;;;;;;9.58;7.20;;;7.20;99.90;;;;;;1932760;72;22205;-88
2022/11/24 00:35:31;;;;;;;9.38;7.00;;;7.20;99.90;;;;;;1900461;75;21105;-87
2022/11/24 00:38:23;;;;;;;9.50;7.22;;;7.20;99.90;;;;;;1892341;75;21044;-87
2022/11/24 00:43:59;;;;;;;7.80;6.80;;;7.10;99.90;;;;;;1936798;72;22154;-88
2022/11/24 00:46:50;;;;;;;7.90;7.08;;;7.20;99.90;;;;;;1889480;75;21147;-88
2022/11/24 00:49:42;;;;;;;8.18;6.97;;;7.20;99.90;;;;;;1889264;75;21145;-89
2022/11/24 00:52:36;;;;;;;9.53;7.78;;;7.20;99.90;;;;;;1890216;75;21235;-88
2022/11/24 00:55:27;;;;;;;9.60;7.47;;;7.20;99.90;;;;;;1885497;75;21507;-87
2022/11/24 00:58:19;;;;;;;12.00;7.85;;;7.10;99.90;;;;;;1897481;75;21066;-88
2022/11/24 01:03:56;;;;;;;10.55;7.78;;;7.20;99.90;;;;;;1950139;72;22198;-88
2022/11/24 01:09:27;;;;;;;12.85;10.15;;;7.20;99.90;;;;;;1942305;72;22129;-89
2022/11/24 01:12:18;;;;;;;10.20;9.20;;;7.20;99.90;;;;;;1899274;75;21121;-89
2022/11/24 01:15:11;;;;;;;11.22;9.35;;;7.20;99.90;;;;;;1901702;75;21115;-88
2022/11/24 01:18:03;;;;;;;10.38;9.23;;;7.30;99.90;;;;;;1888506;75;21227;-87
2022/11/24 01:23:40;;;;;;;10.25;8.00;;;7.20;99.90;;;;;;1947339;72;22237;-88
2022/11/24 01:29:17;;;;;;;10.43;8.58;;;7.10;99.90;;;;;;1954371;72;22067;-89
2022/11/24 01:32:09;;;;;;;9.45;8.53;;;7.10;99.90;;;;;;1912039;74;21132;-88
2022/11/24 01:35:01;;;;;;;9.63;8.38;;;7.10;99.90;;;;;;1913153;74;21113;-88
2022/11/24 01:37:52;;;;;;;11.00;8.28;;;7.00;99.90;;;;;;1908199;74;21208;-87
2022/11/24 01:43:27;;;;;;;9.40;7.90;;;7.10;99.90;;;;;;1925654;72;22169;-88
2022/11/24 01:46:22;;;;;;;8.68;7.40;;;7.10;99.90;;;;;;1878853;75;21221;-88
2022/11/24 01:49:19;;;;;;;10.13;7.80;;;7.00;99.90;;;;;;1883062;75;21159;-87
2022/11/24 01:52:16;;;;;;;10.80;8.55;;;7.00;99.90;;;;;;1872493;75;21127;-89
2022/11/24 01:55:11;;;;;;;9.88;8.20;;;6.90;99.90;;;;;;1872722;76;21064;-88
2022/11/24 01:58:07;;;;;;;10.10;7.92;;;6.80;99.90;;;;;;1894980;75;21044;-87
2022/11/24 02:00:59;;;;;;;10.98;8.98;;;6.80;99.90;;;;;;1882696;75;21526;-88
2022/11/24 02:03:52;;;;;;;11.15;9.38;;;6.80;99.90;;;;;;1873370;75;21116;-88
2022/11/24 02:06:45;;;;;;;10.25;9.05;;;6.70;99.90;;;;;;1875928;75;21063;-89
2022/11/24 02:09:40;;;;;;;13.80;9.88;;;6.60;99.90;;;;;;1874445;75;21126;-88
2022/11/24 02:12:32;;;;;;;14.95;9.38;;;6.60;99.90;;;;;;1898837;75;21136;-88
2022/11/24 02:15:24;;;;;;;12.78;10.05;;;6.50;99.90;;;;;;1873432;75;21090;-89
2022/11/24 02:18:16;;;;;;;11.97;9.60;;;6.50;99.90;;;;;;1894631;75;21189;-87
2022/11/24 02:21:08;;;;;;;10.65;9.13;;;6.50;99.90;;;;;;1877578;75;21048;-89
2022/11/24 02:24:03;;;;;;;14.05;9.60;;;6.50;99.90;;;;;;1880834;75;21089;-88
2022/11/24 02:26:54;;;;;;;12.70;9.25;;;6.50;99.90;;;;;;1892988;75;21375;-88
2022/11/24 02:29:46;;;;;;;11.30;9.40;;;6.50;99.90;;;;;;1879766;75;21161;-88
2022/11/24 02:32:41;;;;;;;12.40;9.28;;;6.50;99.90;;;;;;1891610;75;21110;-88
2022/11/24 02:35:33;;;;;;;13.00;10.28;;;6.60;99.90;;;;;;1874111;75;21055;-89
2022/11/24 02:38:32;;;;;;;12.25;9.55;;;6.70;99.90;;;;;;1873993;75;21176;-88
2022/11/24 02:44:11;;;;;;;15.03;10.38;;;6.70;99.90;;;;;;1926035;72;22182;-88
2022/11/24 02:47:08;;;;;;;12.30;9.50;;;6.70;99.90;;;;;;1879450;75;21197;-88
2022/11/24 02:50:00;;;;;;;10.53;8.73;;;6.70;99.90;;;;;;1873358;75;21051;-87
2022/11/24 02:52:52;;;;;;;11.60;9.25;;;6.70;99.90;;;;;;1893094;75;22299;-87
2022/11/24 02:58:25;;;;;;;11.53;9.05;;;6.80;99.90;;;;;;1942718;72;22252;-88
2022/11/24 03:03:54;;;;;;;11.05;8.85;;;6.80;99.90;;;;;;1915003;72;22282;-88
2022/11/24 03:06:46;;;;;;;9.75;8.08;;;6.80;99.90;;;;;;1938478;73;21142;-88
2022/11/24 03:09:38;;;;;;;9.40;7.72;;;6.80;99.90;;;;;;1934809;73;21109;-88
2022/11/24 03:12:30;;;;;;;9.10;7.85;;;6.80;99.90;;;;;;1949591;73;21083;-88
2022/11/24 03:15:22;;;;;;;8.73;7.83;;;6.70;99.90;;;;;;1948202;73;21118;-89
2022/11/24 03:18:14;;;;;;;9.25;7.53;;;6.70;99.90;;;;;;1941067;73;21126;-88
2022/11/24 03:23:47;;;;;;;10.55;8.13;;;6.80;99.90;;;;;;1941574;72;22237;-88
2022/11/24 03:26:38;;;;;;;10.72;8.53;;;6.70;99.90;;;;;;1892283;75;21118;-88
2022/11/24 03:29:30;;;;;;;12.78;10.30;;;6.60;99.90;;;;;;1893202;75;21118;-88
2022/11/24 03:32:22;;;;;;;13.90;9.93;;;6.60;99.90;;;;;;1892752;75;21212;-88
2022/11/24 03:35:13;;;;;;;19.15;11.30;;;6.60;99.90;;;;;;1884459;75;21094;-90
2022/11/24 03:38:05;;;;;;;18.55;11.60;;;6.50;99.90;;;;;;1908199;75;21168;-87
2022/11/24 03:46:27;;;;;;;22.02;11.60;;;6.40;99.90;;;;;;1926585;72;22247;-88
2022/11/24 03:49:22;;;;;;;18.15;11.12;;;6.40;99.90;;;;;;1887155;75;21115;-88
2022/11/24 03:52:14;;;;;;;17.12;11.78;;;6.40;99.90;;;;;;1896704;75;21122;-90
2022/11/24 03:55:06;;;;;;;19.30;11.38;;;6.40;99.90;;;;;;1872812;75;21139;-89
2022/11/24 03:57:57;;;;;;;16.12;11.20;;;6.40;99.90;;;;;;1890191;73;21172;-89
2022/11/24 04:00:50;;;;;;;17.98;11.63;;;6.30;99.90;;;;;;1889300;75;21055;-89
2022/11/24 04:03:42;;;;;;;15.18;10.43;;;6.30;99.90;;;;;;1893306;75;21168;-89
2022/11/24 04:09:11;;;;;;;15.88;11.48;;;6.30;99.90;;;;;;1943805;72;22420;-88
2022/11/24 04:15:14;;;;;;;14.75;11.03;;;6.40;99.90;;;;;;1925184;73;21098;-88
2022/11/24 04:18:06;;;;;;;14.63;10.60;;;6.40;99.90;;;;;;1931016;73;21171;-88
2022/11/24 04:23:37;;;;;;;17.67;11.28;;;6.50;99.90;;;;;;1937440;72;22213;-89
2022/11/24 04:26:29;;;;;;;14.68;11.08;;;6.50;99.90;;;;;;1887603;75;21109;-87
2022/11/24 04:29:21;;;;;;;15.08;10.43;;;6.50;99.90;;;;;;1885809;75;21090;-87
2022/11/24 04:35:03;;;;;;;12.20;10.03;;;6.50;99.90;;;;;;1950521;72;22171;-89
2022/11/24 04:37:55;;;;;;;14.58;10.45;;;6.50;99.90;;;;;;1920302;73;21104;-89
2022/11/24 04:43:26;;;;;;;14.20;10.40;;;6.50;99.90;;;;;;1923447;72;22170;-86
2022/11/24 04:46:18;;;;;;;14.83;10.00;;;6.50;99.90;;;;;;1873851;75;21194;-88
2022/11/24 04:49:10;;;;;;;13.32;10.30;;;6.50;99.90;;;;;;1872653;75;21063;-88
2022/11/24 04:52:02;;;;;;;13.60;10.18;;;6.40;99.90;;;;;;1872641;76;21103;-89
2022/11/24 04:54:53;;;;;;;13.25;9.88;;;6.40;99.90;;;;;;1883529;75;21047;-89
2022/11/24 04:57:45;;;;;;;13.30;9.98;;;6.40;99.90;;;;;;1904502;75;21111;-87
2022/11/24 05:00:37;;;;;;;13.55;9.95;;;6.40;99.90;;;;;;1894632;75;21106;-88
2022/11/24 05:03:29;;;;;;;13.30;9.88;;;6.40;99.90;;;;;;1887984;75;21096;-87
2022/11/24 05:09:00;;;;;;;12.60;9.05;;;6.40;99.90;;;;;;1944658;72;22256;-88
2022/11/24 05:11:51;;;;;;;13.78;9.93;;;6.50;99.90;;;;;;1882484;75;21220;-88
2022/11/24 05:14:46;;;;;;;12.95;9.10;;;6.40;99.90;;;;;;1877546;75;21105;-88
2022/11/24 05:17:39;;;;;;;15.88;9.95;;;6.40;99.90;;;;;;1894220;75;21120;-87
2022/11/24 05:20:30;;;;;;;15.40;9.95;;;6.40;99.90;;;;;;1902030;75;21216;-87
2022/11/24 05:23:22;;;;;;;16.73;10.60;;;6.40;99.90;;;;;;1894614;75;21334;-88
2022/11/24 05:28:57;;;;;;;17.87;11.35;;;6.50;99.90;;;;;;1929136;72;22252;-88
2022/11/24 05:31:48;;;;;;;17.15;11.20;;;6.50;99.90;;;;;;1894959;75;21187;-87
2022/11/24 05:34:40;;;;;;;18.25;11.25;;;6.50;99.90;;;;;;1872411;75;21071;-88
2022/11/24 05:37:32;;;;;;;17.17;11.40;;;6.50;99.90;;;;;;1891928;75;21160;-88
2022/11/24 05:40:24;;;;;;;19.85;11.43;;;6.60;99.90;;;;;;1872606;75;21120;-87
2022/11/24 05:43:17;;;;;;;16.95;11.28;;;6.60;99.90;;;;;;1875380;75;21118;-87
2022/11/24 05:46:12;;;;;;;17.75;11.90;;;6.50;99.90;;;;;;1878807;75;21099;-89
2022/11/24 05:49:04;;;;;;;19.45;12.88;;;6.50;99.90;;;;;;1894716;75;21148;-88
2022/11/24 05:51:56;;;;;;;21.77;12.73;;;6.60;99.90;;;;;;1872574;75;21101;-88
2022/11/24 05:54:47;;;;;;;22.67;14.00;;;6.60;99.90;;;;;;1886855;75;21123;-88
2022/11/24 05:57:40;;;;;;;21.95;13.70;;;6.60;99.90;;;;;;1893975;75;21067;-88
2022/11/24 06:00:33;;;;;;;21.87;13.65;;;6.60;99.90;;;;;;1872615;75;21124;-88
2022/11/24 06:03:24;;;;;;;21.40;12.30;;;6.70;99.90;;;;;;1887435;75;21106;-87
2022/11/24 06:08:54;;;;;;;21.25;12.10;;;6.70;99.90;;;;;;1931293;72;22292;-89
2022/11/24 06:14:29;;;;;;;19.87;10.50;;;6.70;99.90;;;;;;1949547;72;22145;-88
2022/11/24 06:17:21;;;;;;;18.25;10.72;;;6.70;99.90;;;;;;1909171;74;21105;-89
2022/11/24 06:22:53;;;;;;;19.90;11.12;;;6.70;99.90;;;;;;1943472;72;22986;-89
2022/11/24 06:25:45;;;;;;;18.73;11.30;;;6.60;99.90;;;;;;1900080;75;21114;-90
2022/11/24 06:28:38;;;;;;;17.20;10.38;;;6.70;99.90;;;;;;1885780;75;21114;-89
2022/11/24 06:31:34;;;;;;;17.17;10.85;;;6.60;99.90;;;;;;1891321;75;21168;-89
2022/11/24 06:34:25;;;;;;;17.90;9.80;;;6.60;99.90;;;;;;1876982;76;21183;-89
2022/11/24 06:39:56;;;;;;;15.20;9.73;;;6.50;99.90;;;;;;1934677;72;22222;-90
2022/11/24 06:42:52;;;;;;;14.95;10.30;;;6.50;99.90;;;;;;1887320;75;21102;-90
2022/11/24 06:45:52;;;;;;;14.80;9.75;;;6.60;99.90;;;;;;1894872;75;21102;-88
2022/11/24 06:48:43;;;;;;;15.13;9.20;;;6.50;99.90;;;;;;1916638;75;21166;-88
2022/11/24 06:54:19;;;;;;;14.20;9.35;;;6.50;99.90;;;;;;1930053;72;22222;-88
2022/11/24 06:59:58;;;;;;;15.28;9.70;;;6.40;99.90;;;;;;1931085;72;20182;-90
2022/11/24 07:02:49;;;;;;;13.30;9.48;;;6.50;99.90;;;;;;1880381;75;21109;-89
2022/11/24 07:05:42;;;;;;;16.32;9.83;;;6.50;99.90;;;;;;1882096;75;21168;-88
2022/11/24 07:08:34;;;;;;;18.82;10.95;;;6.50;99.90;;;;;;1874206;75;21064;-88
2022/11/24 07:14:07;;;;;;;18.65;11.68;;;6.50;99.90;;;;;;1950041;72;22169;-90
2022/11/24 07:19:37;;;;;;;13.50;9.43;;;6.50;99.90;;;;;;1940678;72;22271;-89
2022/11/24 07:22:29;;;;;;;14.30;9.25;;;6.50;99.90;;;;;;1887571;75;21107;-89
2022/11/24 07:25:21;;;;;;;12.98;8.30;;;6.50;99.90;;;;;;1885745;75;21206;-89
2022/11/24 07:28:12;;;;;;;12.93;7.97;;;6.50;99.90;;;;;;1872600;75;21592;-89
2022/11/24 07:33:49;;;;;;;11.63;6.97;;;6.50;99.90;;;;;;1934215;72;22263;-88
2022/11/24 07:36:40;;;;;;;11.53;7.72;;;6.60;99.90;;;;;;1927697;73;21098;-90
2022/11/24 07:39:32;;;;;;;10.50;7.20;;;6.60;99.90;;;;;;1922303;73;21239;-89
2022/11/24 07:42:24;;;;;;;13.18;8.30;;;6.70;99.90;;;;;;1913219;75;21188;-90
2022/11/24 07:45:16;;;;;;;10.72;7.22;;;6.80;99.90;;;;;;1898060;75;21111;-89
2022/11/24 07:48:12;;;;;;;11.12;7.45;;;6.80;99.90;;;;;;1914116;74;21127;-89
2022/11/24 07:51:05;;;;;;;11.12;7.95;;;6.90;99.90;;;;;;1892134;74;21061;-89
2022/11/24 07:56:42;;;;;;;13.03;8.35;;;6.90;99.90;;;;;;1943843;72;22276;-88
2022/11/24 07:59:34;;;;;;;10.48;7.47;;;6.90;99.90;;;;;;1940296;73;21121;-87
2022/11/24 08:02:26;;;;;;;11.80;8.45;;;6.80;99.90;;;;;;1930500;73;21062;-89
2022/11/24 08:08:00;;;;;;;13.35;9.50;;;6.90;99.90;;;;;;1944853;72;22182;-88
2022/11/24 08:10:52;;;;;;;14.20;9.35;;;6.90;99.90;;;;;;1940048;73;21168;-88
2022/11/24 08:13:44;;;;;;;16.02;9.73;;;7.00;99.90;;;;;;1925376;73;21110;-87
2022/11/24 08:16:36;;;;;;;12.80;9.55;;;7.00;99.90;;;;;;1920075;73;21083;-88
2022/11/24 08:19:28;;;;;;;11.18;8.80;;;7.10;99.90;;;;;;1923132;73;21201;-87
2022/11/24 08:25:00;;;;;;;13.53;9.28;;;7.20;99.90;;;;;;1935499;72;22245;-89
2022/11/24 08:27:51;;;;;;;15.10;9.95;;;7.20;99.90;;;;;;1890886;75;21111;-88
2022/11/24 08:30:45;;;;;;;15.20;9.48;;;7.30;99.90;;;;;;1879699;75;21055;-88
2022/11/24 08:33:36;;;;;;;13.00;8.85;;;7.30;99.90;;;;;;1872470;76;21107;-88
2022/11/24 08:36:30;;;;;;;12.18;9.35;;;7.30;99.90;;;;;;1872804;76;21176;-88
2022/11/24 08:39:21;;;;;;;13.35;9.20;;;7.40;99.90;;;;;;1872328;76;21110;-88
2022/11/24 08:42:16;;;;;;;14.38;8.35;;;7.40;99.90;;;;;;1886117;75;21160;-88
2022/11/24 08:45:09;;;;;;;12.00;8.83;;;7.50;99.90;;;;;;1871580;75;21095;-88
2022/11/24 08:48:01;;;;;;;14.07;9.40;;;7.60;99.90;;;;;;1879076;75;21152;-88
2022/11/24 08:53:37;;;;;;;13.85;9.00;;;7.70;99.90;;;;;;1955408;72;22171;-88
2022/11/24 08:56:30;;;;;;;11.63;8.90;;;7.80;99.90;;;;;;1881106;75;21114;-89
2022/11/24 08:59:21;;;;;;;10.88;8.38;;;7.90;99.90;;;;;;1877667;75;21144;-88
2022/11/24 09:02:14;;;;;;;12.35;8.33;;;7.90;99.90;;;;;;1883327;75;21086;-89
2022/11/24 09:05:09;;;;;;;11.65;8.60;;;8.10;99.90;;;;;;1885673;75;21135;-89
2022/11/24 09:08:01;;;;;;;12.65;8.43;;;8.00;99.90;;;;;;1887763;75;21359;-87
2022/11/24 09:13:37;;;;;;;10.55;7.87;;;8.00;99.90;;;;;;1932331;72;22280;-89
2022/11/24 09:19:11;;;;;;;9.88;7.33;;;8.10;99.90;;;;;;1936867;72;22220;-88
2022/11/24 09:22:02;;;;;;;8.68;6.20;;;8.10;99.90;;;;;;1900327;75;21093;-87
2022/11/24 09:24:54;;;;;;;8.38;6.08;;;8.10;99.90;;;;;;1877113;75;21117;-87
2022/11/24 09:27:45;;;;;;;8.20;6.10;;;8.20;99.90;;;;;;1898808;75;21586;-87
2022/11/24 09:33:15;;;;;;;8.80;5.70;;;8.20;99.90;;;;;;1935761;72;22352;-88
2022/11/24 09:38:46;;;;;;;8.98;6.00;;;8.30;99.90;;;;;;1946522;72;22150;-89
2022/11/24 09:45:01;;;;;;;9.05;6.05;;;8.40;99.90;;;;;;1949952;72;22245;-89
2022/11/24 09:50:49;;;;;;;6.47;5.55;;;8.60;99.90;;;;;;1924162;72;22201;-88
2022/11/24 09:59:23;;;;;;;9.60;6.33;;;8.60;99.90;;;;;;1946136;72;22173;-88
2022/11/24 10:02:15;;;;;;;7.95;5.70;;;8.60;99.90;;;;;;1904822;74;21124;-87
2022/11/24 10:05:09;;;;;;;7.47;6.30;;;8.50;99.90;;;;;;1916217;74;21176;-88
2022/11/24 10:08:06;;;;;;;11.38;7.55;;;8.40;99.90;;;;;;1932827;73;21558;-87
2022/11/24 10:14:10;;;;;;;11.12;7.50;;;8.50;99.90;;;;;;1942236;72;22138;-88
2022/11/24 10:17:09;;;;;;;14.05;10.85;;;8.60;99.90;;;;;;1880196;75;21110;-88
2022/11/24 10:20:05;;;;;;;10.40;6.62;;;8.70;99.90;;;;;;1872274;75;21115;-87
2022/11/24 10:23:07;;;;;;;8.45;6.30;;;8.90;99.90;;;;;;1881975;75;21110;-87
2022/11/24 10:26:00;;;;;;;8.75;6.05;;;9.00;99.90;;;;;;1878656;75;21067;-88
2022/11/24 10:28:56;;;;;;;8.00;4.97;;;8.90;99.90;;;;;;1869019;75;21126;-87
2022/11/24 10:31:51;;;;;;;12.50;5.92;;;8.90;99.90;;;;;;1874040;75;21174;-87
2022/11/24 10:37:28;;;;;;;7.83;5.50;;;8.90;99.90;;;;;;1958839;72;22312;-88
2022/11/24 10:40:25;;;;;;;8.55;5.60;;;9.00;99.90;;;;;;1917018;75;21074;-88
2022/11/24 10:43:18;;;;;;;7.92;5.53;;;9.00;99.90;;;;;;1916938;75;21192;-89
2022/11/24 10:48:53;;;;;;;11.12;6.45;;;9.00;99.90;;;;;;1950840;72;22216;-88
2022/11/24 10:51:50;;;;;;;7.72;5.72;;;8.90;99.90;;;;;;1890798;75;21105;-88
2022/11/24 10:54:56;;;;;;;7.33;5.67;;;8.80;99.90;;;;;;1887963;75;21164;-87
2022/11/24 10:57:48;;;;;;;11.00;6.62;;;8.80;99.90;;;;;;1899981;75;21129;-88
2022/11/24 11:00:39;;;;;;;8.28;6.15;;;8.90;99.90;;;;;;1904778;75;21055;-87
2022/11/24 11:03:46;;;;;;;8.75;6.40;;;8.90;99.90;;;;;;1898726;73;21123;-87
2022/11/24 11:09:21;;;;;;;11.50;7.92;;;9.10;99.90;;;;;;1927302;73;22209;-88
2022/11/24 11:12:18;;;;;;;11.35;8.10;;;9.20;99.90;;;;;;1897535;75;21176;-88
2022/11/24 11:15:29;;;;;;;11.93;8.18;;;9.20;99.90;;;;;;1905889;75;21103;-90
2022/11/24 11:18:22;;;;;;;10.93;9.48;;;9.30;99.90;;;;;;1882437;76;21099;-88
2022/11/24 11:21:16;;;;;;;11.28;8.28;;;9.20;99.90;;;;;;1898199;75;21199;-88
2022/11/24 11:27:00;;;;;;;10.03;7.97;;;9.30;99.90;;;;;;1946824;72;22232;-89
2022/11/24 11:29:52;;;;;;;10.03;8.35;;;9.40;99.90;;;;;;1923263;73;21155;-87
2022/11/24 11:35:34;;;;;;;12.75;10.85;;;9.40;99.90;;;;;;1947515;72;28084;-89
2022/11/24 11:38:28;;;;;;;12.07;10.00;;;9.60;99.90;;;;;;1914370;73;21058;-87
2022/11/24 11:41:22;;;;;;;13.15;10.23;;;9.60;99.90;;;;;;1913009;74;21089;-87
2022/11/24 11:47:04;;;;;;;14.98;10.70;;;9.60;99.90;;;;;;1950720;72;22237;-88
2022/11/24 11:49:58;;;;;;;13.15;9.65;;;9.60;99.90;;;;;;1917706;73;21829;-88
2022/11/24 11:52:58;;;;;;;11.75;9.25;;;9.80;99.90;;;;;;1938119;73;21101;-88
2022/11/24 11:59:05;;;;;;;14.47;8.08;;;10.00;99.90;;;;;;1952250;72;22209;-87
2022/11/24 12:02:22;;;;;;;10.75;7.67;;;10.10;99.90;;;;;;1924384;73;21102;-87
2022/11/24 12:05:18;;;;;;;11.95;8.20;;;10.20;99.90;;;;;;1871382;76;21646;-88
2022/11/24 12:16:50;;;;;;;9.93;7.15;;;10.20;99.90;;;;;;1951867;72;22221;-87
2022/11/24 12:19:57;;;;;;;9.70;6.30;;;10.20;99.90;;;;;;1902752;75;21453;-88
2022/11/24 12:22:51;;;;;;;10.18;7.80;;;10.30;99.90;;;;;;1878594;75;21652;-87
2022/11/24 12:25:46;;;;;;;12.73;7.53;;;10.30;99.90;;;;;;1895864;75;21131;-89
2022/11/24 12:28:43;;;;;;;9.30;6.30;;;10.30;99.90;;;;;;1903462;75;21234;-87
2022/11/24 12:31:39;;;;;;;10.90;6.30;;;10.30;99.90;;;;;;1887160;75;21071;-87
2022/11/24 12:34:38;;;;;;;10.30;7.17;;;10.20;99.90;;;;;;1905083;75;21055;-87
2022/11/24 12:37:42;;;;;;;9.98;6.40;;;10.30;99.90;;;;;;1899595;75;21117;-89
2022/11/24 12:40:41;;;;;;;9.73;6.37;;;10.30;99.90;;;;;;1887591;75;21146;-87
2022/11/24 12:43:37;;;;;;;8.75;5.10;;;10.30;99.90;;;;;;1890376;75;21135;-87
2022/11/24 12:46:35;;;;;;;8.85;5.67;;;10.30;99.90;;;;;;1888632;75;21104;-89
2022/11/24 12:54:58;;;;;;;8.25;4.90;;;10.30;99.90;;;;;;1944006;72;22161;-89
2022/11/24 12:57:54;;;;;;;9.48;4.78;;;10.20;99.90;;;;;;1890366;75;21105;-89
2022/11/24 13:00:51;;;;;;;8.73;4.80;;;10.20;99.90;;;;;;1903274;75;21129;-88
2022/11/24 13:03:47;;;;;;;8.45;4.45;;;10.20;99.90;;;;;;1902444;75;21146;-89
2022/11/24 13:09:20;;;;;;;6.70;5.00;;;10.30;99.90;;;;;;1931451;72;22610;-88
2022/11/24 13:12:15;;;;;;;6.20;4.12;;;10.40;99.90;;;;;;1884734;75;21158;-88
2022/11/24 13:15:16;;;;;;;7.90;5.10;;;10.40;99.90;;;;;;1879572;75;21193;-87
2022/11/24 13:21:37;;;;;;;6.22;4.12;;;10.40;99.90;;;;;;1960321;72;22468;-88
2022/11/24 13:24:30;;;;;;;5.47;3.33;;;10.40;99.90;;;;;;1911009;74;21118;-87
2022/11/24 13:27:31;;;;;;;3.70;2.90;;;10.40;99.90;;;;;;1908862;74;21083;-87
2022/11/24 13:33:43;;;;;;;7.10;3.17;;;10.50;99.90;;;;;;1946069;72;22212;-88
2022/11/24 13:36:54;;;;;;;9.23;3.10;;;10.50;99.90;;;;;;1881425;75;21111;-87
2022/11/24 13:39:53;;;;;;;4.33;3.02;;;10.50;99.90;;;;;;1879254;75;21556;-89
2022/11/24 13:43:35;;;;;;;9.13;4.85;;;10.50;99.90;;;;;;1878709;75;21137;-87
2022/11/24 13:49:47;;;;;;;7.10;3.33;;;10.60;99.90;;;;;;1952744;72;22180;-88
2022/11/24 13:52:51;;;;;;;6.58;3.47;;;10.70;99.90;;;;;;1923292;73;21125;-87
2022/11/24 13:55:45;;;;;;;3.62;1.70;;;10.60;99.90;;;;;;1916503;75;21177;-88
2022/11/24 14:01:22;;;;;;;4.33;1.45;;;10.70;99.90;;;;;;1945588;72;22318;-88
2022/11/24 14:04:24;;;;;;;3.37;1.05;;;10.70;99.90;;;;;;1906526;75;21078;-86
2022/11/24 14:07:19;;;;;;;4.25;1.70;;;10.80;99.90;;;;;;1915663;74;21114;-88
2022/11/24 14:10:18;;;;;;;2.60;1.15;;;10.80;99.90;;;;;;1895970;75;21114;-88
2022/11/24 14:13:29;;;;;;;3.05;1.05;;;10.80;99.90;;;;;;1892235;75;21062;-87
2022/11/24 14:16:22;;;;;;;4.55;1.20;;;10.80;99.90;;;;;;1900237;75;21046;-86
2022/11/24 14:19:19;;;;;;;3.15;1.45;;;10.90;99.90;;;;;;1895487;75;21610;-86
2022/11/24 14:22:20;;;;;;;3.12;1.27;;;10.90;99.90;;;;;;1893594;75;21209;-86
2022/11/24 14:28:02;;;;;;;11.25;4.92;;;10.90;99.90;;;;;;1930178;72;22225;-88
2022/11/24 14:34:20;;;;;;;7.55;2.42;;;11.00;99.90;;;;;;1943737;72;22174;-88
2022/11/24 14:40:03;;;;;;;6.12;2.40;;;11.10;99.90;;;;;;1932753;72;22549;-88
2022/11/24 14:42:56;;;;;;;4.85;2.10;;;11.10;99.90;;;;;;1890521;75;21144;-89
2022/11/24 14:45:53;;;;;;;6.80;2.22;;;11.00;99.90;;;;;;1891616;75;21212;-87
2022/11/24 14:48:50;;;;;;;4.62;2.00;;;11.00;99.90;;;;;;1894731;75;21117;-87
2022/11/24 14:51:44;;;;;;;7.42;2.40;;;10.90;99.90;;;;;;1904234;75;21055;-87
2022/11/24 14:54:37;;;;;;;3.67;2.15;;;10.80;99.90;;;;;;1893099;74;21106;-88
2022/11/24 14:57:31;;;;;;;7.12;2.70;;;10.80;99.90;;;;;;1891059;75;21148;-89
2022/11/24 15:00:42;;;;;;;3.87;2.10;;;10.70;99.90;;;;;;1900954;75;21086;-88
2022/11/24 15:03:34;;;;;;;5.53;2.52;;;10.70;99.90;;;;;;1887373;75;21561;-87
2022/11/24 15:06:25;;;;;;;7.03;2.60;;;10.60;99.90;;;;;;1885421;75;21109;-88
2022/11/24 15:09:28;;;;;;;5.62;2.30;;;10.60;99.90;;;;;;1889789;75;21070;-87
2022/11/24 15:15:04;;;;;;;6.08;2.52;;;10.40;99.90;;;;;;1946072;72;22233;-89
2022/11/24 15:17:58;;;;;;;6.05;2.52;;;10.30;99.90;;;;;;1900376;75;21256;-88
2022/11/24 15:20:50;;;;;;;5.45;2.22;;;10.30;99.90;;;;;;1878867;75;21168;-87
2022/11/24 15:24:06;;;;;;;5.03;2.80;;;10.20;99.90;;;;;;1899832;75;21220;-87
2022/11/24 15:27:01;;;;;;;4.45;2.58;;;10.20;99.90;;;;;;1882657;75;21119;-89
2022/11/24 15:29:53;;;;;;;7.62;2.55;;;10.20;99.90;;;;;;1903371;75;21112;-88
2022/11/24 15:32:51;;;;;;;5.85;2.58;;;10.20;99.90;;;;;;1890345;75;21087;-88
2022/11/24 15:35:43;;;;;;;11.38;4.10;;;10.10;99.90;;;;;;1890682;75;21353;-89
2022/11/24 15:38:35;;;;;;;7.65;3.20;;;10.10;99.90;;;;;;1893773;75;21103;-88
2022/11/24 15:41:29;;;;;;;9.78;3.50;;;10.10;99.90;;;;;;1876235;75;21782;-88
2022/11/24 15:44:21;;;;;;;7.40;3.35;;;10.10;99.90;;;;;;1883075;75;21201;-89
2022/11/24 15:47:12;;;;;;;7.37;3.10;;;10.00;99.90;;;;;;1888155;75;21244;-88
2022/11/24 15:50:05;;;;;;;10.82;3.45;;;9.90;99.90;;;;;;1872402;75;21116;-87
2022/11/24 15:52:58;;;;;;;6.87;3.02;;;9.80;99.90;;;;;;1878812;75;21095;-87
2022/11/24 15:55:49;;;;;;;7.87;3.47;;;9.80;99.90;;;;;;1905160;75;21149;-87
2022/11/24 15:58:41;;;;;;;8.23;4.00;;;9.70;99.90;;;;;;1886326;75;21140;-88
2022/11/24 16:01:34;;;;;;;7.12;3.90;;;9.70;99.90;;;;;;1885819;75;21095;-87
2022/11/24 16:04:28;;;;;;;10.72;3.50;;;9.60;99.90;;;;;;1873562;75;21636;-88
2022/11/24 16:09:59;;;;;;;10.38;3.60;;;9.40;99.90;;;;;;1953985;72;22162;-88
2022/11/24 16:12:51;;;;;;;7.75;3.85;;;9.40;99.90;;;;;;1897054;75;21193;-88
2022/11/24 16:15:43;;;;;;;8.23;3.40;;;9.40;99.90;;;;;;1894822;75;21130;-88
2022/11/24 16:18:38;;;;;;;5.20;3.52;;;9.30;99.90;;;;;;1913719;75;21102;-88
2022/11/24 16:21:28;;;;;;;7.20;3.67;;;9.30;99.90;;;;;;1903617;75;21639;-88
2022/11/24 16:24:20;;;;;;;9.70;3.70;;;9.40;99.90;;;;;;1916971;75;21149;-88
2022/11/24 16:27:12;;;;;;;8.83;3.37;;;9.40;99.90;;;;;;1907177;75;21392;-88
2022/11/24 16:30:03;;;;;;;8.78;3.15;;;9.40;99.90;;;;;;1905914;75;21212;-88
2022/11/24 16:32:58;;;;;;;7.37;3.02;;;9.30;99.90;;;;;;1905326;75;21169;-88
2022/11/24 16:35:50;;;;;;;9.28;3.15;;;9.30;99.90;;;;;;1900416;75;21152;-88
2022/11/24 16:38:42;;;;;;;8.18;3.58;;;9.20;99.90;;;;;;1894866;75;21188;-88
2022/11/24 16:41:33;;;;;;;8.30;4.00;;;9.20;99.90;;;;;;1889512;75;21126;-88
2022/11/24 16:44:26;;;;;;;7.75;3.22;;;9.10;99.90;;;;;;1906451;75;21079;-88
2022/11/24 16:47:18;;;;;;;6.85;3.50;;;9.10;99.90;;;;;;1884278;76;21106;-88
2022/11/24 16:50:12;;;;;;;6.92;4.10;;;9.10;99.90;;;;;;1896299;75;21105;-88
2022/11/24 16:53:08;;;;;;;10.25;3.95;;;9.20;99.90;;;;;;1886491;75;21174;-87
2022/11/24 16:56:00;;;;;;;7.35;4.12;;;9.20;99.90;;;;;;1887248;75;21055;-88
2022/11/24 16:58:52;;;;;;;11.45;4.35;;;9.20;99.90;;;;;;1896646;75;21060;-88
2022/11/24 17:01:45;;;;;;;8.35;4.03;;;9.20;99.90;;;;;;1873847;76;21106;-88
2022/11/24 17:04:37;;;;;;;7.72;3.95;;;9.10;99.90;;;;;;1894658;75;21125;-87
2022/11/24 17:07:28;;;;;;;8.83;4.35;;;9.10;99.90;;;;;;1889376;75;21114;-87
2022/11/24 17:10:20;;;;;;;10.55;3.87;;;9.00;99.90;;;;;;1914308;74;21133;-88
2022/11/24 17:13:13;;;;;;;9.33;3.90;;;9.00;99.90;;;;;;1908769;74;21132;-88
2022/11/24 17:16:06;;;;;;;8.98;4.70;;;9.10;99.90;;;;;;1873051;76;21101;-88
2022/11/24 17:18:58;;;;;;;10.70;4.95;;;9.00;99.90;;;;;;1882249;76;21149;-90
2022/11/24 17:21:50;;;;;;;8.33;5.25;;;9.00;99.90;;;;;;1898833;74;21646;-87
2022/11/24 17:24:43;;;;;;;8.53;4.60;;;9.00;99.90;;;;;;1910093;74;21102;-88
2022/11/24 17:27:35;;;;;;;8.13;4.30;;;9.00;99.90;;;;;;1911012;74;21126;-87
2022/11/24 17:30:26;;;;;;;9.95;4.60;;;8.90;99.90;;;;;;1907592;74;21164;-88
2022/11/24 17:33:18;;;;;;;8.65;5.33;;;8.90;99.90;;;;;;1907074;74;21160;-89
2022/11/24 17:36:10;;;;;;;9.08;5.05;;;8.90;99.90;;;;;;1908818;74;21137;-88
2022/11/24 17:39:06;;;;;;;8.55;4.55;;;8.80;99.90;;;;;;1911905;74;21131;-88
2022/11/24 17:41:58;;;;;;;8.73;4.67;;;8.80;99.90;;;;;;1907781;74;21086;-87
2022/11/24 17:44:50;;;;;;;8.95;4.30;;;8.80;99.90;;;;;;1907875;74;21102;-87
2022/11/24 17:47:41;;;;;;;11.33;4.60;;;8.80;99.90;;;;;;1906667;74;21109;-88
2022/11/24 17:50:33;;;;;;;8.05;4.47;;;8.80;99.90;;;;;;1896388;76;21304;-88
2022/11/24 17:53:26;;;;;;;9.33;4.10;;;8.70;99.90;;;;;;1909280;74;21506;-88
2022/11/24 17:56:22;;;;;;;7.55;4.33;;;8.80;99.90;;;;;;1907561;74;21082;-88
2022/11/24 17:59:13;;;;;;;10.38;4.72;;;8.80;99.90;;;;;;1907759;74;21367;-88
2022/11/24 18:02:04;;;;;;;8.63;4.90;;;8.80;99.90;;;;;;1909569;74;21167;-87
2022/11/24 18:04:57;;;;;;;9.50;5.75;;;8.70;99.90;;;;;;1896520;75;21169;-87
2022/11/24 18:07:53;;;;;;;9.33;5.12;;;8.70;99.90;;;;;;1908102;74;21079;-87